sensor_id;sensor_type;location;lat;lon;timestamp;P1;durP1;ratioP1;P2;durP2;ratioP2
40058;SDS011;25763;49.972;8.568;2023-07-29T00:00:41;44.45;;;42.15;;
40058;SDS011;25763;49.972;8.568;2023-07-29T00:03:07;39.15;;;37.08;;
40058;SDS011;25763;49.972;8.568;2023-07-29T00:05:33;35.65;;;33.75;;
40058;SDS011;25763;49.972;8.568;2023-07-29T00:07:58;40.70;;;38.58;;
40058;SDS011;25763;49.972;8.568;2023-07-29T00:10:24;35.67;;;33.78;;
40058;SDS011;25763;49.972;8.568;2023-07-29T00:12:49;34.85;;;33.03;;
40058;SDS011;25763;49.972;8.568;2023-07-29T00:15:15;35.75;;;33.88;;
40058;SDS011;25763;49.972;8.568;2023-07-29T00:17:40;35.33;;;33.45;;
40058;SDS011;25763;49.972;8.568;2023-07-29T00:20:06;33.88;;;32.08;;
40058;SDS011;25763;49.972;8.568;2023-07-29T00:22:32;33.47;;;31.58;;
40058;SDS011;25763;49.972;8.568;2023-07-29T00:24:57;29.48;;;27.88;;
40058;SDS011;25763;49.972;8.568;2023-07-29T00:27:24;30.48;;;28.90;;
40058;SDS011;25763;49.972;8.568;2023-07-29T00:29:50;30.15;;;28.52;;
40058;SDS011;25763;49.972;8.568;2023-07-29T00:32:15;30.45;;;28.85;;
40058;SDS011;25763;49.972;8.568;2023-07-29T00:34:40;30.25;;;28.67;;
40058;SDS011;25763;49.972;8.568;2023-07-29T00:37:06;30.75;;;29.15;;
40058;SDS011;25763;49.972;8.568;2023-07-29T00:39:34;32.38;;;30.67;;
40058;SDS011;25763;49.972;8.568;2023-07-29T00:41:59;34.08;;;32.28;;
40058;SDS011;25763;49.972;8.568;2023-07-29T00:44:25;36.95;;;35.03;;
40058;SDS011;25763;49.972;8.568;2023-07-29T00:46:52;40.40;;;38.30;;
40058;SDS011;25763;49.972;8.568;2023-07-29T00:49:18;41.65;;;39.50;;
40058;SDS011;25763;49.972;8.568;2023-07-29T00:51:45;42.45;;;40.25;;
40058;SDS011;25763;49.972;8.568;2023-07-29T00:54:11;37.58;;;35.63;;
40058;SDS011;25763;49.972;8.568;2023-07-29T00:56:36;45.22;;;42.88;;
40058;SDS011;25763;49.972;8.568;2023-07-29T00:59:03;40.97;;;38.75;;
40058;SDS011;25763;49.972;8.568;2023-07-29T01:01:29;41.00;;;38.88;;
40058;SDS011;25763;49.972;8.568;2023-07-29T01:03:55;46.35;;;43.95;;
40058;SDS011;25763;49.972;8.568;2023-07-29T01:14:21;39.88;;;37.80;;
40058;SDS011;25763;49.972;8.568;2023-07-29T01:16:51;41.95;;;39.80;;
40058;SDS011;25763;49.972;8.568;2023-07-29T01:22:22;39.78;;;37.72;;
40058;SDS011;25763;49.972;8.568;2023-07-29T01:24:49;40.85;;;38.75;;
40058;SDS011;25763;49.972;8.568;2023-07-29T01:27:14;39.65;;;37.60;;
40058;SDS011;25763;49.972;8.568;2023-07-29T01:29:39;35.53;;;33.67;;
40058;SDS011;25763;49.972;8.568;2023-07-29T01:32:07;39.03;;;37.03;;
40058;SDS011;25763;49.972;8.568;2023-07-29T01:34:39;36.05;;;34.13;;
40058;SDS011;25763;49.972;8.568;2023-07-29T01:37:10;38.85;;;36.85;;
40058;SDS011;25763;49.972;8.568;2023-07-29T01:39:39;49.88;;;47.35;;
40058;SDS011;25763;49.972;8.568;2023-07-29T01:42:06;47.30;;;44.90;;
40058;SDS011;25763;49.972;8.568;2023-07-29T01:44:32;50.05;;;47.50;;
40058;SDS011;25763;49.972;8.568;2023-07-29T01:46:59;52.00;;;49.38;;
40058;SDS011;25763;49.972;8.568;2023-07-29T01:49:24;51.60;;;48.97;;
40058;SDS011;25763;49.972;8.568;2023-07-29T01:51:50;59.25;;;56.28;;
40058;SDS011;25763;49.972;8.568;2023-07-29T01:54:15;56.60;;;53.72;;
40058;SDS011;25763;49.972;8.568;2023-07-29T01:56:40;50.78;;;48.20;;
40058;SDS011;25763;49.972;8.568;2023-07-29T01:59:06;50.75;;;48.17;;
40058;SDS011;25763;49.972;8.568;2023-07-29T02:01:31;48.33;;;45.88;;
40058;SDS011;25763;49.972;8.568;2023-07-29T02:03:57;54.85;;;52.08;;
40058;SDS011;25763;49.972;8.568;2023-07-29T02:06:22;49.13;;;46.53;;
40058;SDS011;25763;49.972;8.568;2023-07-29T02:08:48;56.38;;;53.50;;
40058;SDS011;25763;49.972;8.568;2023-07-29T02:11:13;57.22;;;54.33;;
40058;SDS011;25763;49.972;8.568;2023-07-29T02:13:38;57.40;;;54.50;;
40058;SDS011;25763;49.972;8.568;2023-07-29T02:16:04;56.30;;;53.47;;
40058;SDS011;25763;49.972;8.568;2023-07-29T02:18:29;54.90;;;52.10;;
40058;SDS011;25763;49.972;8.568;2023-07-29T02:20:54;56.58;;;53.65;;
40058;SDS011;25763;49.972;8.568;2023-07-29T02:23:20;58.22;;;55.30;;
40058;SDS011;25763;49.972;8.568;2023-07-29T02:25:45;68.38;;;64.93;;
40058;SDS011;25763;49.972;8.568;2023-07-29T02:28:10;63.90;;;60.70;;
40058;SDS011;25763;49.972;8.568;2023-07-29T02:30:36;64.35;;;61.15;;
40058;SDS011;25763;49.972;8.568;2023-07-29T02:33:02;67.85;;;64.47;;
40058;SDS011;25763;49.972;8.568;2023-07-29T02:35:27;64.35;;;61.10;;
40058;SDS011;25763;49.972;8.568;2023-07-29T02:37:53;65.78;;;62.47;;
40058;SDS011;25763;49.972;8.568;2023-07-29T02:40:18;67.57;;;63.67;;
40058;SDS011;25763;49.972;8.568;2023-07-29T02:42:45;62.33;;;59.20;;
40058;SDS011;25763;49.972;8.568;2023-07-29T02:45:11;70.95;;;67.35;;
40058;SDS011;25763;49.972;8.568;2023-07-29T02:47:37;50.47;;;47.90;;
40058;SDS011;25763;49.972;8.568;2023-07-29T02:50:02;49.35;;;46.80;;
40058;SDS011;25763;49.972;8.568;2023-07-29T02:52:28;37.60;;;35.60;;
40058;SDS011;25763;49.972;8.568;2023-07-29T02:54:53;49.90;;;47.30;;
40058;SDS011;25763;49.972;8.568;2023-07-29T02:57:19;41.85;;;39.70;;
40058;SDS011;25763;49.972;8.568;2023-07-29T02:59:44;38.38;;;36.40;;
40058;SDS011;25763;49.972;8.568;2023-07-29T03:02:10;39.38;;;37.22;;
40058;SDS011;25763;49.972;8.568;2023-07-29T03:04:36;41.17;;;38.92;;
40058;SDS011;25763;49.972;8.568;2023-07-29T03:07:01;40.38;;;38.30;;
40058;SDS011;25763;49.972;8.568;2023-07-29T03:09:27;41.33;;;39.22;;
40058;SDS011;25763;49.972;8.568;2023-07-29T03:11:52;36.63;;;34.72;;
40058;SDS011;25763;49.972;8.568;2023-07-29T03:14:19;38.10;;;36.10;;
40058;SDS011;25763;49.972;8.568;2023-07-29T03:16:45;42.50;;;40.33;;
40058;SDS011;25763;49.972;8.568;2023-07-29T03:19:11;40.50;;;38.40;;
40058;SDS011;25763;49.972;8.568;2023-07-29T03:21:37;38.55;;;36.53;;
40058;SDS011;25763;49.972;8.568;2023-07-29T03:24:02;35.22;;;33.38;;
40058;SDS011;25763;49.972;8.568;2023-07-29T03:26:28;38.75;;;36.75;;
40058;SDS011;25763;49.972;8.568;2023-07-29T03:28:53;37.20;;;35.22;;
40058;SDS011;25763;49.972;8.568;2023-07-29T03:31:18;36.17;;;34.30;;
40058;SDS011;25763;49.972;8.568;2023-07-29T03:33:44;32.88;;;31.17;;
40058;SDS011;25763;49.972;8.568;2023-07-29T03:36:09;31.80;;;30.10;;
40058;SDS011;25763;49.972;8.568;2023-07-29T03:38:35;34.08;;;32.33;;
40058;SDS011;25763;49.972;8.568;2023-07-29T03:41:04;33.70;;;31.93;;
40058;SDS011;25763;49.972;8.568;2023-07-29T03:43:30;33.85;;;32.10;;
40058;SDS011;25763;49.972;8.568;2023-07-29T03:45:55;31.65;;;30.00;;
40058;SDS011;25763;49.972;8.568;2023-07-29T03:48:21;31.67;;;30.02;;
40058;SDS011;25763;49.972;8.568;2023-07-29T03:50:46;33.17;;;31.17;;
40058;SDS011;25763;49.972;8.568;2023-07-29T03:53:11;31.95;;;30.15;;
40058;SDS011;25763;49.972;8.568;2023-07-29T03:55:37;31.83;;;30.20;;
40058;SDS011;25763;49.972;8.568;2023-07-29T03:58:02;31.38;;;29.67;;
40058;SDS011;25763;49.972;8.568;2023-07-29T04:00:27;34.83;;;33.03;;
40058;SDS011;25763;49.972;8.568;2023-07-29T04:02:53;30.92;;;29.33;;
40058;SDS011;25763;49.972;8.568;2023-07-29T04:05:18;29.67;;;28.08;;
40058;SDS011;25763;49.972;8.568;2023-07-29T04:07:44;33.40;;;31.67;;
40058;SDS011;25763;49.972;8.568;2023-07-29T04:10:09;30.73;;;29.13;;
40058;SDS011;25763;49.972;8.568;2023-07-29T04:12:35;34.92;;;33.13;;
40058;SDS011;25763;49.972;8.568;2023-07-29T04:15:01;31.40;;;29.73;;
40058;SDS011;25763;49.972;8.568;2023-07-29T04:17:26;30.65;;;29.08;;
40058;SDS011;25763;49.972;8.568;2023-07-29T04:19:51;31.77;;;30.10;;
40058;SDS011;25763;49.972;8.568;2023-07-29T04:22:17;34.95;;;33.15;;
40058;SDS011;25763;49.972;8.568;2023-07-29T04:24:42;32.38;;;30.67;;
40058;SDS011;25763;49.972;8.568;2023-07-29T04:27:08;32.17;;;30.45;;
40058;SDS011;25763;49.972;8.568;2023-07-29T04:29:33;32.83;;;31.13;;
40058;SDS011;25763;49.972;8.568;2023-07-29T04:32:01;33.15;;;31.45;;
40058;SDS011;25763;49.972;8.568;2023-07-29T04:34:28;30.85;;;29.23;;
40058;SDS011;25763;49.972;8.568;2023-07-29T04:36:54;37.13;;;35.13;;
40058;SDS011;25763;49.972;8.568;2023-07-29T04:39:19;33.80;;;32.03;;
40058;SDS011;25763;49.972;8.568;2023-07-29T04:41:44;36.45;;;34.55;;
40058;SDS011;25763;49.972;8.568;2023-07-29T04:44:10;34.58;;;32.78;;
40058;SDS011;25763;49.972;8.568;2023-07-29T04:46:36;34.88;;;32.97;;
40058;SDS011;25763;49.972;8.568;2023-07-29T04:49:01;39.13;;;37.03;;
40058;SDS011;25763;49.972;8.568;2023-07-29T04:51:27;36.28;;;34.40;;
40058;SDS011;25763;49.972;8.568;2023-07-29T04:53:53;40.00;;;37.97;;
40058;SDS011;25763;49.972;8.568;2023-07-29T04:56:18;41.90;;;39.70;;
40058;SDS011;25763;49.972;8.568;2023-07-29T04:58:44;47.35;;;44.95;;
40058;SDS011;25763;49.972;8.568;2023-07-29T05:01:09;46.22;;;43.85;;
40058;SDS011;25763;49.972;8.568;2023-07-29T05:03:34;51.92;;;49.30;;
40058;SDS011;25763;49.972;8.568;2023-07-29T05:06:00;51.95;;;49.28;;
40058;SDS011;25763;49.972;8.568;2023-07-29T05:08:26;48.47;;;45.88;;
40058;SDS011;25763;49.972;8.568;2023-07-29T05:10:52;53.50;;;50.60;;
40058;SDS011;25763;49.972;8.568;2023-07-29T05:13:19;50.38;;;47.83;;
40058;SDS011;25763;49.972;8.568;2023-07-29T05:15:45;58.35;;;55.40;;
40058;SDS011;25763;49.972;8.568;2023-07-29T05:18:11;56.05;;;53.22;;
40058;SDS011;25763;49.972;8.568;2023-07-29T05:20:37;55.67;;;52.75;;
40058;SDS011;25763;49.972;8.568;2023-07-29T05:23:02;59.83;;;56.80;;
40058;SDS011;25763;49.972;8.568;2023-07-29T05:25:28;56.67;;;53.80;;
40058;SDS011;25763;49.972;8.568;2023-07-29T05:27:54;60.78;;;57.72;;
40058;SDS011;25763;49.972;8.568;2023-07-29T05:30:19;57.00;;;54.05;;
40058;SDS011;25763;49.972;8.568;2023-07-29T05:32:45;72.93;;;69.30;;
40058;SDS011;25763;49.972;8.568;2023-07-29T05:35:10;63.58;;;60.38;;
40058;SDS011;25763;49.972;8.568;2023-07-29T05:37:38;58.00;;;55.10;;
40058;SDS011;25763;49.972;8.568;2023-07-29T05:40:07;68.25;;;64.85;;
40058;SDS011;25763;49.972;8.568;2023-07-29T05:42:33;65.43;;;62.05;;
40058;SDS011;25763;49.972;8.568;2023-07-29T05:44:59;63.13;;;59.95;;
40058;SDS011;25763;49.972;8.568;2023-07-29T05:47:25;61.28;;;58.17;;
40058;SDS011;25763;49.972;8.568;2023-07-29T05:49:50;65.97;;;62.67;;
40058;SDS011;25763;49.972;8.568;2023-07-29T05:52:16;60.85;;;57.78;;
40058;SDS011;25763;49.972;8.568;2023-07-29T05:54:41;65.40;;;61.65;;
40058;SDS011;25763;49.972;8.568;2023-07-29T05:57:08;61.92;;;58.80;;
40058;SDS011;25763;49.972;8.568;2023-07-29T05:59:34;64.63;;;61.33;;
40058;SDS011;25763;49.972;8.568;2023-07-29T06:02:00;64.72;;;61.42;;
40058;SDS011;25763;49.972;8.568;2023-07-29T06:04:28;63.42;;;60.22;;
40058;SDS011;25763;49.972;8.568;2023-07-29T06:06:53;51.65;;;49.00;;
40058;SDS011;25763;49.972;8.568;2023-07-29T06:09:20;50.83;;;48.22;;
40058;SDS011;25763;49.972;8.568;2023-07-29T06:11:46;49.58;;;47.03;;
40058;SDS011;25763;49.972;8.568;2023-07-29T06:14:11;55.95;;;53.10;;
40058;SDS011;25763;49.972;8.568;2023-07-29T06:16:37;49.33;;;46.83;;
40058;SDS011;25763;49.972;8.568;2023-07-29T06:19:02;51.85;;;49.10;;
40058;SDS011;25763;49.972;8.568;2023-07-29T06:21:27;45.50;;;42.38;;
40058;SDS011;25763;49.972;8.568;2023-07-29T06:23:53;50.58;;;47.97;;
40058;SDS011;25763;49.972;8.568;2023-07-29T06:26:18;47.63;;;45.20;;
40058;SDS011;25763;49.972;8.568;2023-07-29T06:28:44;43.53;;;41.33;;
40058;SDS011;25763;49.972;8.568;2023-07-29T06:31:09;49.97;;;47.42;;
40058;SDS011;25763;49.972;8.568;2023-07-29T06:33:34;43.95;;;41.70;;
40058;SDS011;25763;49.972;8.568;2023-07-29T06:36:00;43.83;;;41.58;;
40058;SDS011;25763;49.972;8.568;2023-07-29T06:38:25;41.42;;;39.33;;
40058;SDS011;25763;49.972;8.568;2023-07-29T06:40:50;43.58;;;41.35;;
40058;SDS011;25763;49.972;8.568;2023-07-29T06:43:16;41.72;;;39.63;;
40058;SDS011;25763;49.972;8.568;2023-07-29T06:45:43;49.03;;;46.53;;
40058;SDS011;25763;49.972;8.568;2023-07-29T06:48:08;54.22;;;51.42;;
40058;SDS011;25763;49.972;8.568;2023-07-29T06:50:34;53.65;;;50.92;;
40058;SDS011;25763;49.972;8.568;2023-07-29T06:52:59;51.58;;;48.95;;
40058;SDS011;25763;49.972;8.568;2023-07-29T06:55:24;52.53;;;49.80;;
40058;SDS011;25763;49.972;8.568;2023-07-29T06:57:50;52.83;;;49.92;;
40058;SDS011;25763;49.972;8.568;2023-07-29T07:00:18;49.13;;;46.60;;
40058;SDS011;25763;49.972;8.568;2023-07-29T07:02:44;53.83;;;51.03;;
40058;SDS011;25763;49.972;8.568;2023-07-29T07:05:09;46.47;;;44.08;;
40058;SDS011;25763;49.972;8.568;2023-07-29T07:07:35;48.20;;;45.70;;
40058;SDS011;25763;49.972;8.568;2023-07-29T07:10:00;45.85;;;43.35;;
40058;SDS011;25763;49.972;8.568;2023-07-29T07:12:26;45.17;;;42.88;;
40058;SDS011;25763;49.972;8.568;2023-07-29T07:14:51;47.83;;;45.40;;
40058;SDS011;25763;49.972;8.568;2023-07-29T07:17:16;41.60;;;39.47;;
40058;SDS011;25763;49.972;8.568;2023-07-29T07:19:42;40.83;;;38.72;;
40058;SDS011;25763;49.972;8.568;2023-07-29T07:22:08;44.17;;;41.90;;
40058;SDS011;25763;49.972;8.568;2023-07-29T07:24:36;34.15;;;32.35;;
40058;SDS011;25763;49.972;8.568;2023-07-29T07:27:02;39.20;;;37.20;;
40058;SDS011;25763;49.972;8.568;2023-07-29T07:29:28;39.67;;;37.58;;
40058;SDS011;25763;49.972;8.568;2023-07-29T07:31:53;39.08;;;37.08;;
40058;SDS011;25763;49.972;8.568;2023-07-29T07:34:22;36.80;;;34.90;;
40058;SDS011;25763;49.972;8.568;2023-07-29T07:36:48;34.60;;;32.80;;
40058;SDS011;25763;49.972;8.568;2023-07-29T07:39:14;41.67;;;39.53;;
40058;SDS011;25763;49.972;8.568;2023-07-29T07:41:40;42.15;;;40.00;;
40058;SDS011;25763;49.972;8.568;2023-07-29T07:44:06;46.42;;;43.92;;
40058;SDS011;25763;49.972;8.568;2023-07-29T07:46:31;46.03;;;43.65;;
40058;SDS011;25763;49.972;8.568;2023-07-29T07:48:56;48.83;;;46.17;;
40058;SDS011;25763;49.972;8.568;2023-07-29T07:51:22;54.90;;;52.10;;
40058;SDS011;25763;49.972;8.568;2023-07-29T07:53:53;47.10;;;44.60;;
40058;SDS011;25763;49.972;8.568;2023-07-29T07:56:18;56.65;;;53.75;;
40058;SDS011;25763;49.972;8.568;2023-07-29T07:58:43;55.30;;;52.47;;
40058;SDS011;25763;49.972;8.568;2023-07-29T08:01:09;53.25;;;50.53;;
40058;SDS011;25763;49.972;8.568;2023-07-29T08:03:35;64.93;;;61.67;;
40058;SDS011;25763;49.972;8.568;2023-07-29T08:06:01;62.47;;;59.33;;
40058;SDS011;25763;49.972;8.568;2023-07-29T08:08:26;55.00;;;52.20;;
40058;SDS011;25763;49.972;8.568;2023-07-29T08:10:53;48.88;;;46.42;;
40058;SDS011;25763;49.972;8.568;2023-07-29T08:13:19;49.55;;;47.05;;
40058;SDS011;25763;49.972;8.568;2023-07-29T08:15:49;47.75;;;45.30;;
40058;SDS011;25763;49.972;8.568;2023-07-29T08:18:15;50.88;;;48.30;;
40058;SDS011;25763;49.972;8.568;2023-07-29T08:20:41;45.05;;;42.75;;
40058;SDS011;25763;49.972;8.568;2023-07-29T08:23:16;49.17;;;46.63;;
40058;SDS011;25763;49.972;8.568;2023-07-29T08:25:41;39.65;;;37.55;;
40058;SDS011;25763;49.972;8.568;2023-07-29T08:28:06;39.15;;;37.17;;
40058;SDS011;25763;49.972;8.568;2023-07-29T08:30:32;41.50;;;39.38;;
40058;SDS011;25763;49.972;8.568;2023-07-29T08:32:57;39.70;;;37.67;;
40058;SDS011;25763;49.972;8.568;2023-07-29T08:35:22;68.47;;;65.13;;
40058;SDS011;25763;49.972;8.568;2023-07-29T08:37:48;83.65;;;79.53;;
40058;SDS011;25763;49.972;8.568;2023-07-29T08:40:13;90.95;;;86.47;;
40058;SDS011;25763;49.972;8.568;2023-07-29T08:42:39;88.97;;;84.63;;
40058;SDS011;25763;49.972;8.568;2023-07-29T08:45:07;101.50;;;96.55;;
40058;SDS011;25763;49.972;8.568;2023-07-29T08:47:33;99.03;;;94.18;;
40058;SDS011;25763;49.972;8.568;2023-07-29T08:49:59;127.93;;;121.72;;
40058;SDS011;25763;49.972;8.568;2023-07-29T08:52:27;132.82;;;126.35;;
40058;SDS011;25763;49.972;8.568;2023-07-29T08:54:54;122.70;;;116.72;;
40058;SDS011;25763;49.972;8.568;2023-07-29T08:57:20;142.23;;;135.27;;
40058;SDS011;25763;49.972;8.568;2023-07-29T08:59:47;139.90;;;133.02;;
40058;SDS011;25763;49.972;8.568;2023-07-29T09:02:12;115.68;;;110.00;;
40058;SDS011;25763;49.972;8.568;2023-07-29T09:04:38;130.85;;;124.40;;
40058;SDS011;25763;49.972;8.568;2023-07-29T09:07:04;124.60;;;118.45;;
40058;SDS011;25763;49.972;8.568;2023-07-29T09:09:31;118.30;;;112.47;;
40058;SDS011;25763;49.972;8.568;2023-07-29T09:11:57;126.18;;;119.97;;
40058;SDS011;25763;49.972;8.568;2023-07-29T09:14:23;127.22;;;121.00;;
40058;SDS011;25763;49.972;8.568;2023-07-29T09:16:49;125.13;;;118.95;;
40058;SDS011;25763;49.972;8.568;2023-07-29T09:19:14;142.07;;;135.20;;
40058;SDS011;25763;49.972;8.568;2023-07-29T09:21:40;129.73;;;123.38;;
40058;SDS011;25763;49.972;8.568;2023-07-29T09:24:06;148.55;;;141.27;;
40058;SDS011;25763;49.972;8.568;2023-07-29T09:26:32;152.43;;;144.98;;
40058;SDS011;25763;49.972;8.568;2023-07-29T09:28:58;170.60;;;162.35;;
40058;SDS011;25763;49.972;8.568;2023-07-29T09:31:25;179.30;;;170.57;;
40058;SDS011;25763;49.972;8.568;2023-07-29T09:33:58;188.68;;;179.43;;
40058;SDS011;25763;49.972;8.568;2023-07-29T09:36:25;212.32;;;202.02;;
40058;SDS011;25763;49.972;8.568;2023-07-29T09:38:52;207.45;;;197.38;;
40058;SDS011;25763;49.972;8.568;2023-07-29T09:41:19;218.68;;;208.05;;
40058;SDS011;25763;49.972;8.568;2023-07-29T09:43:47;217.18;;;206.60;;
40058;SDS011;25763;49.972;8.568;2023-07-29T09:46:12;189.57;;;180.32;;
40058;SDS011;25763;49.972;8.568;2023-07-29T09:48:38;181.23;;;172.35;;
40058;SDS011;25763;49.972;8.568;2023-07-29T09:51:13;155.45;;;147.70;;
40058;SDS011;25763;49.972;8.568;2023-07-29T09:53:46;160.73;;;152.80;;
40058;SDS011;25763;49.972;8.568;2023-07-29T09:56:12;141.70;;;134.75;;
40058;SDS011;25763;49.972;8.568;2023-07-29T09:58:39;153.57;;;146.02;;
40058;SDS011;25763;49.972;8.568;2023-07-29T10:01:05;182.77;;;173.90;;
40058;SDS011;25763;49.972;8.568;2023-07-29T10:03:31;172.25;;;163.80;;
40058;SDS011;25763;49.972;8.568;2023-07-29T10:06:02;220.98;;;210.32;;
40058;SDS011;25763;49.972;8.568;2023-07-29T10:08:31;211.93;;;201.68;;
40058;SDS011;25763;49.972;8.568;2023-07-29T10:11:05;219.13;;;208.48;;
40058;SDS011;25763;49.972;8.568;2023-07-29T10:13:31;214.60;;;204.20;;
40058;SDS011;25763;49.972;8.568;2023-07-29T10:15:58;265.35;;;252.38;;
40058;SDS011;25763;49.972;8.568;2023-07-29T10:18:24;278.45;;;264.95;;
40058;SDS011;25763;49.972;8.568;2023-07-29T10:20:50;233.27;;;221.98;;
40058;SDS011;25763;49.972;8.568;2023-07-29T10:23:19;314.10;;;298.52;;
40058;SDS011;25763;49.972;8.568;2023-07-29T10:25:50;308.70;;;293.38;;
40058;SDS011;25763;49.972;8.568;2023-07-29T10:28:23;339.23;;;322.30;;
40058;SDS011;25763;49.972;8.568;2023-07-29T10:30:51;309.90;;;294.52;;
40058;SDS011;25763;49.972;8.568;2023-07-29T10:33:17;359.65;;;341.52;;
40058;SDS011;25763;49.972;8.568;2023-07-29T10:35:42;250.20;;;237.88;;
40058;SDS011;25763;49.972;8.568;2023-07-29T10:38:08;280.48;;;266.58;;
40058;SDS011;25763;49.972;8.568;2023-07-29T10:40:43;289.02;;;274.80;;
40058;SDS011;25763;49.972;8.568;2023-07-29T10:43:11;249.43;;;237.23;;
40058;SDS011;25763;49.972;8.568;2023-07-29T10:45:40;280.60;;;266.83;;
40058;SDS011;25763;49.972;8.568;2023-07-29T10:48:13;310.38;;;294.98;;
40058;SDS011;25763;49.972;8.568;2023-07-29T10:53:55;113.22;;;107.65;;
40058;SDS011;25763;49.972;8.568;2023-07-29T10:56:30;177.30;;;168.57;;
40058;SDS011;25763;49.972;8.568;2023-07-29T10:59:52;69.28;;;65.82;;
40058;SDS011;25763;49.972;8.568;2023-07-29T11:01:58;212.50;;;202.10;;
40058;SDS011;25763;49.972;8.568;2023-07-29T11:04:25;51.97;;;49.38;;
40058;SDS011;25763;49.972;8.568;2023-07-29T11:15:28;213.00;;;202.55;;
40058;SDS011;25763;49.972;8.568;2023-07-29T11:17:57;312.58;;;297.02;;
40058;SDS011;25763;49.972;8.568;2023-07-29T11:20:25;339.48;;;322.42;;
40058;SDS011;25763;49.972;8.568;2023-07-29T11:22:52;455.30;;;430.83;;
40058;SDS011;25763;49.972;8.568;2023-07-29T11:25:19;445.50;;;421.95;;
40058;SDS011;25763;49.972;8.568;2023-07-29T11:27:46;440.23;;;417.02;;
40058;SDS011;25763;49.972;8.568;2023-07-29T11:30:12;415.88;;;394.20;;
40058;SDS011;25763;49.972;8.568;2023-07-29T11:32:39;398.65;;;378.30;;
40058;SDS011;25763;49.972;8.568;2023-07-29T11:35:06;373.25;;;354.33;;
40058;SDS011;25763;49.972;8.568;2023-07-29T11:37:36;369.48;;;350.73;;
40058;SDS011;25763;49.972;8.568;2023-07-29T11:40:03;361.48;;;343.30;;
40058;SDS011;25763;49.972;8.568;2023-07-29T11:42:31;361.23;;;342.95;;
40058;SDS011;25763;49.972;8.568;2023-07-29T11:44:59;373.67;;;353.33;;
40058;SDS011;25763;49.972;8.568;2023-07-29T11:47:24;379.70;;;360.30;;
40058;SDS011;25763;49.972;8.568;2023-07-29T11:49:50;411.42;;;390.13;;
40058;SDS011;25763;49.972;8.568;2023-07-29T11:52:16;420.20;;;398.50;;
40058;SDS011;25763;49.972;8.568;2023-07-29T11:54:44;439.92;;;416.85;;
40058;SDS011;25763;49.972;8.568;2023-07-29T11:57:11;333.52;;;316.75;;
40058;SDS011;25763;49.972;8.568;2023-07-29T11:59:38;467.42;;;442.27;;
40058;SDS011;25763;49.972;8.568;2023-07-29T12:02:05;475.65;;;449.73;;
40058;SDS011;25763;49.972;8.568;2023-07-29T12:04:33;336.55;;;319.52;;
40058;SDS011;25763;49.972;8.568;2023-07-29T12:06:59;299.92;;;285.08;;
40058;SDS011;25763;49.972;8.568;2023-07-29T12:09:25;380.02;;;360.58;;
40058;SDS011;25763;49.972;8.568;2023-07-29T12:11:52;464.45;;;439.40;;
40058;SDS011;25763;49.972;8.568;2023-07-29T12:14:18;250.32;;;238.05;;
40058;SDS011;25763;49.972;8.568;2023-07-29T12:16:43;280.58;;;266.58;;
40058;SDS011;25763;49.972;8.568;2023-07-29T12:19:12;334.42;;;317.33;;
40058;SDS011;25763;49.972;8.568;2023-07-29T12:21:39;388.37;;;368.20;;
40058;SDS011;25763;49.972;8.568;2023-07-29T12:24:06;408.45;;;387.10;;
40058;SDS011;25763;49.972;8.568;2023-07-29T12:26:32;64.13;;;60.92;;
40058;SDS011;25763;49.972;8.568;2023-07-29T12:28:57;60.25;;;57.25;;
40058;SDS011;25763;49.972;8.568;2023-07-29T12:31:30;34.50;;;32.72;;
40058;SDS011;25763;49.972;8.568;2023-07-29T12:33:57;16.50;;;15.57;;
40058;SDS011;25763;49.972;8.568;2023-07-29T12:36:22;24.33;;;23.02;;
40058;SDS011;25763;49.972;8.568;2023-07-29T12:39:04;38.35;;;36.35;;
40058;SDS011;25763;49.972;8.568;2023-07-29T12:41:30;18.58;;;17.58;;
40058;SDS011;25763;49.972;8.568;2023-07-29T12:43:55;22.90;;;21.70;;
40058;SDS011;25763;49.972;8.568;2023-07-29T12:46:21;39.83;;;37.80;;
40058;SDS011;25763;49.972;8.568;2023-07-29T12:48:46;33.88;;;32.08;;
40058;SDS011;25763;49.972;8.568;2023-07-29T12:51:11;21.05;;;19.90;;
40058;SDS011;25763;49.972;8.568;2023-07-29T12:53:37;67.05;;;63.72;;
40058;SDS011;25763;49.972;8.568;2023-07-29T12:56:02;101.68;;;96.68;;
40058;SDS011;25763;49.972;8.568;2023-07-29T12:58:27;61.22;;;58.13;;
40058;SDS011;25763;49.972;8.568;2023-07-29T13:00:53;68.00;;;64.60;;
40058;SDS011;25763;49.972;8.568;2023-07-29T13:03:19;72.28;;;68.70;;
40058;SDS011;25763;49.972;8.568;2023-07-29T13:05:44;113.65;;;108.03;;
40058;SDS011;25763;49.972;8.568;2023-07-29T13:08:10;115.07;;;109.20;;
40058;SDS011;25763;49.972;8.568;2023-07-29T13:10:36;114.57;;;108.95;;
40058;SDS011;25763;49.972;8.568;2023-07-29T13:13:01;95.32;;;90.63;;
40058;SDS011;25763;49.972;8.568;2023-07-29T13:15:26;109.78;;;104.38;;
40058;SDS011;25763;49.972;8.568;2023-07-29T13:17:52;119.25;;;113.40;;
40058;SDS011;25763;49.972;8.568;2023-07-29T13:20:17;72.35;;;68.75;;
40058;SDS011;25763;49.972;8.568;2023-07-29T13:22:42;77.05;;;73.25;;
40058;SDS011;25763;49.972;8.568;2023-07-29T13:25:08;66.95;;;63.65;;
40058;SDS011;25763;49.972;8.568;2023-07-29T13:27:33;104.78;;;99.63;;
40058;SDS011;25763;49.972;8.568;2023-07-29T13:29:59;96.57;;;91.80;;
40058;SDS011;25763;49.972;8.568;2023-07-29T13:32:24;73.65;;;70.00;;
40058;SDS011;25763;49.972;8.568;2023-07-29T13:34:49;58.97;;;56.03;;
40058;SDS011;25763;49.972;8.568;2023-07-29T13:37:14;81.60;;;77.55;;
40058;SDS011;25763;49.972;8.568;2023-07-29T13:39:40;58.33;;;55.40;;
40058;SDS011;25763;49.972;8.568;2023-07-29T13:42:05;60.45;;;57.42;;
40058;SDS011;25763;49.972;8.568;2023-07-29T13:44:31;80.60;;;76.63;;
40058;SDS011;25763;49.972;8.568;2023-07-29T13:46:56;66.50;;;63.20;;
40058;SDS011;25763;49.972;8.568;2023-07-29T13:49:22;82.22;;;78.18;;
40058;SDS011;25763;49.972;8.568;2023-07-29T13:51:47;76.65;;;72.85;;
40058;SDS011;25763;49.972;8.568;2023-07-29T13:54:12;78.78;;;74.90;;
40058;SDS011;25763;49.972;8.568;2023-07-29T13:56:38;54.05;;;51.25;;
40058;SDS011;25763;49.972;8.568;2023-07-29T13:59:03;84.13;;;79.93;;
40058;SDS011;25763;49.972;8.568;2023-07-29T14:01:28;78.63;;;74.70;;
40058;SDS011;25763;49.972;8.568;2023-07-29T14:03:54;69.35;;;65.93;;
40058;SDS011;25763;49.972;8.568;2023-07-29T14:06:19;40.35;;;38.05;;
40058;SDS011;25763;49.972;8.568;2023-07-29T14:08:44;49.42;;;46.92;;
40058;SDS011;25763;49.972;8.568;2023-07-29T14:11:10;68.55;;;65.10;;
40058;SDS011;25763;49.972;8.568;2023-07-29T14:13:35;51.53;;;48.92;;
40058;SDS011;25763;49.972;8.568;2023-07-29T14:16:01;64.18;;;60.97;;
40058;SDS011;25763;49.972;8.568;2023-07-29T14:18:27;47.30;;;44.75;;
40058;SDS011;25763;49.972;8.568;2023-07-29T14:20:53;67.25;;;63.65;;
40058;SDS011;25763;49.972;8.568;2023-07-29T14:23:18;63.08;;;59.95;;
40058;SDS011;25763;49.972;8.568;2023-07-29T14:25:44;57.15;;;54.25;;
40058;SDS011;25763;49.972;8.568;2023-07-29T14:28:09;50.47;;;47.88;;
40058;SDS011;25763;49.972;8.568;2023-07-29T14:30:34;75.68;;;71.90;;
40058;SDS011;25763;49.972;8.568;2023-07-29T14:33:00;75.13;;;71.38;;